Time;durP1;ratioP1;P1;durP2;ratioP2;P2;SDS_P1;SDS_P2;PMS_P1;PMS_P2;Temp;Humidity;BMP_temperature;BMP_pressure;BME280_temperature;BME280_humidity;BME280_pressure;Samples;Min_cycle;Max_cycle;Signal;HPM_P1;HPM_P2
2023/10/09 00:01:26;;;;;;;31.53;5.17;;;11.40;99.90;;;;;;5008652;28;20208;-71
2023/10/09 00:03:55;;;;;;;24.97;5.17;;;11.40;99.90;;;;;;5000611;28;20177;-71
2023/10/09 00:06:36;;;;;;;26.37;5.47;;;11.40;99.90;;;;;;5008422;28;20580;-71
2023/10/09 00:09:16;;;;;;;21.80;4.80;;;11.40;99.90;;;;;;4990867;28;20188;-71
2023/10/09 00:11:44;;;;;;;21.83;5.27;;;11.40;99.90;;;;;;4992785;28;20193;-73
2023/10/09 00:14:10;;;;;;;24.27;5.20;;;11.40;99.90;;;;;;5000505;28;20185;-73
2023/10/09 00:16:43;;;;;;;18.03;4.83;;;11.30;99.90;;;;;;5000147;28;20223;-72
2023/10/09 00:19:19;;;;;;;20.63;5.97;;;11.30;99.90;;;;;;4991608;28;20909;-73
2023/10/09 00:21:49;;;;;;;15.43;4.80;;;11.30;99.90;;;;;;4996613;28;20196;-73
2023/10/09 00:24:24;;;;;;;14.73;4.90;;;11.30;99.90;;;;;;4995705;28;20200;-73
2023/10/09 00:27:11;;;;;;;12.37;4.87;;;11.30;99.90;;;;;;4993375;28;20209;-72
2023/10/09 00:29:42;;;;;;;14.87;4.90;;;11.30;99.90;;;;;;4999235;28;20706;-72
2023/10/09 00:32:15;;;;;;;14.03;5.00;;;11.30;99.90;;;;;;4998970;28;20558;-73
2023/10/09 00:34:41;;;;;;;18.50;5.10;;;11.30;99.90;;;;;;4995335;28;20185;-72
2023/10/09 00:37:16;;;;;;;15.50;5.00;;;11.30;99.90;;;;;;5004434;28;20363;-73
2023/10/09 00:39:45;;;;;;;21.20;5.13;;;11.30;99.90;;;;;;4991295;28;20180;-73
2023/10/09 00:42:25;;;;;;;23.07;5.03;;;11.30;99.90;;;;;;4999127;28;20215;-72
2023/10/09 00:44:51;;;;;;;14.80;5.13;;;11.30;99.90;;;;;;4991915;28;20193;-72
2023/10/09 00:47:21;;;;;;;15.87;6.00;;;11.20;99.90;;;;;;4991522;28;20209;-72
2023/10/09 00:49:59;;;;;;;19.30;5.80;;;11.20;99.90;;;;;;4998049;28;20181;-72
2023/10/09 00:52:43;;;;;;;12.40;5.63;;;11.20;99.90;;;;;;4991394;28;20185;-72
2023/10/09 00:55:38;;;;;;;16.40;5.77;;;11.10;99.90;;;;;;4991677;28;20267;-73
2023/10/09 00:58:12;;;;;;;10.20;4.80;;;11.10;99.90;;;;;;5001044;28;20691;-73
2023/10/09 01:00:46;;;;;;;10.53;4.87;;;11.10;99.90;;;;;;4999303;28;20191;-73
2023/10/09 01:05:52;;;;;;;10.27;4.20;;;11.10;99.90;;;;;;4994884;28;20179;-73
2023/10/09 01:11:18;;;;;;;8.43;3.90;;;11.00;99.90;;;;;;4988309;28;20251;-72
2023/10/09 01:16:17;;;;;;;8.93;3.93;;;10.90;99.90;;;;;;4995141;28;20196;-73
2023/10/09 01:18:49;;;;;;;22.90;4.40;;;10.90;99.90;;;;;;4990662;28;20201;-72
2023/10/09 01:21:15;;;;;;;12.03;3.80;;;10.80;99.90;;;;;;5021878;28;20227;-73
2023/10/09 01:26:44;;;;;;;9.40;4.00;;;10.70;99.90;;;;;;4989749;28;20287;-72
2023/10/09 01:29:19;;;;;;;7.70;3.87;;;10.70;99.90;;;;;;4998566;28;20554;-73
2023/10/09 01:31:52;;;;;;;8.10;4.00;;;10.70;99.90;;;;;;4991434;28;20299;-72
2023/10/09 01:34:49;;;;;;;8.73;4.20;;;10.80;99.90;;;;;;4999072;28;20216;-73
2023/10/09 01:37:18;;;;;;;8.97;4.30;;;10.80;99.90;;;;;;5001262;28;20209;-73
2023/10/09 01:39:51;;;;;;;12.33;4.83;;;10.80;99.90;;;;;;4994277;28;20199;-75
2023/10/09 01:42:50;;;;;;;8.27;4.27;;;10.80;99.90;;;;;;5002374;28;20291;-73
2023/10/09 01:45:26;;;;;;;9.13;4.43;;;10.90;99.90;;;;;;4994179;28;20555;-73
2023/10/09 01:47:53;;;;;;;10.10;4.90;;;10.90;99.90;;;;;;4992265;28;20213;-73
2023/10/09 01:50:22;;;;;;;8.43;4.23;;;10.90;99.90;;;;;;4990107;28;20185;-73
2023/10/09 01:52:47;;;;;;;8.73;4.33;;;10.90;99.90;;;;;;5003080;28;20259;-72
2023/10/09 01:55:27;;;;;;;9.43;4.20;;;11.00;99.90;;;;;;5002738;28;20284;-73
2023/10/09 01:57:53;;;;;;;8.73;4.17;;;10.90;99.90;;;;;;4988980;28;20659;-74
2023/10/09 02:00:23;;;;;;;11.00;4.33;;;10.90;99.90;;;;;;5009466;28;20193;-73
2023/10/09 02:02:50;;;;;;;8.17;3.90;;;10.90;99.90;;;;;;5010226;28;20235;-73
2023/10/09 02:07:44;;;;;;;7.73;3.90;;;10.90;99.90;;;;;;5001682;28;20707;-73
2023/10/09 02:13:06;;;;;;;7.10;3.50;;;10.90;99.90;;;;;;4997102;28;20619;-74
2023/10/09 02:23:25;;;;;;;7.30;3.53;;;10.60;99.90;;;;;;4997647;28;20223;-72
2023/10/09 02:26:01;;;;;;;6.50;3.67;;;10.70;99.90;;;;;;5004816;28;20193;-73
2023/10/09 02:28:32;;;;;;;17.00;3.67;;;10.70;99.90;;;;;;5001225;28;20698;-73
2023/10/09 02:31:00;;;;;;;6.80;3.27;;;10.70;99.90;;;;;;5005193;28;20188;-73
2023/10/09 02:33:30;;;;;;;6.63;3.20;;;10.60;99.90;;;;;;5012458;28;20181;-72
2023/10/09 02:36:05;;;;;;;6.63;3.60;;;10.70;99.90;;;;;;4999257;28;20215;-73
2023/10/09 02:38:35;;;;;;;6.77;2.77;;;10.60;99.90;;;;;;4997206;28;20729;-73
2023/10/09 02:43:47;;;;;;;5.93;3.00;;;10.60;99.90;;;;;;5016638;28;20251;-73
2023/10/09 02:46:18;;;;;;;7.10;3.33;;;10.50;99.90;;;;;;5002192;28;20192;-73
2023/10/09 02:48:50;;;;;;;6.40;3.10;;;10.40;99.90;;;;;;4993353;28;20193;-73
2023/10/09 02:51:30;;;;;;;4.30;2.40;;;10.20;99.90;;;;;;4994159;28;20237;-73
2023/10/09 02:54:06;;;;;;;5.00;2.97;;;10.20;99.90;;;;;;4987647;28;20185;-74
2023/10/09 02:56:37;;;;;;;4.50;2.70;;;10.20;99.90;;;;;;5009803;28;20222;-73
2023/10/09 02:59:07;;;;;;;5.47;3.27;;;10.20;99.90;;;;;;4999316;28;20211;-73
2023/10/09 03:01:38;;;;;;;5.77;2.93;;;10.30;99.90;;;;;;5003181;28;20208;-72
2023/10/09 03:04:05;;;;;;;5.43;3.03;;;10.20;99.90;;;;;;4994189;28;20212;-72
2023/10/09 03:06:35;;;;;;;3.93;2.37;;;10.20;99.90;;;;;;5001689;28;20189;-73
2023/10/09 03:09:16;;;;;;;4.33;2.50;;;10.20;99.90;;;;;;5005680;28;20195;-72
2023/10/09 03:11:53;;;;;;;4.20;2.30;;;10.20;99.90;;;;;;4993874;28;20185;-73
2023/10/09 03:14:20;;;;;;;7.37;2.50;;;10.30;99.90;;;;;;5008329;28;20207;-74
2023/10/09 03:16:49;;;;;;;3.60;2.60;;;10.20;99.90;;;;;;4997144;28;20223;-73
2023/10/09 03:19:14;;;;;;;4.07;2.37;;;10.20;99.90;;;;;;5004297;28;20246;-73
2023/10/09 03:21:40;;;;;;;3.80;2.20;;;10.20;99.90;;;;;;4993477;28;20720;-72
2023/10/09 03:24:07;;;;;;;3.73;2.37;;;10.20;99.90;;;;;;4993337;28;20181;-73
2023/10/09 03:26:33;;;;;;;4.40;2.20;;;10.20;99.90;;;;;;5000126;28;20268;-73
2023/10/09 03:29:06;;;;;;;3.10;2.10;;;10.20;99.90;;;;;;4992547;28;20264;-73
2023/10/09 03:31:36;;;;;;;3.27;2.20;;;10.20;99.90;;;;;;4993184;28;20216;-72
2023/10/09 03:34:02;;;;;;;3.83;2.27;;;10.20;99.90;;;;;;4985155;28;20268;-72
2023/10/09 03:36:30;;;;;;;4.00;2.20;;;10.20;99.90;;;;;;5002260;28;20609;-72
2023/10/09 03:38:59;;;;;;;3.30;1.70;;;10.20;99.90;;;;;;5003906;28;21065;-73
2023/10/09 03:41:29;;;;;;;3.67;2.10;;;10.20;99.90;;;;;;5003536;28;20521;-73
2023/10/09 03:43:55;;;;;;;3.60;1.87;;;10.20;99.90;;;;;;5004590;28;20180;-73
2023/10/09 03:46:26;;;;;;;3.43;2.10;;;10.20;99.90;;;;;;5012619;28;20188;-73
2023/10/09 03:48:52;;;;;;;3.63;1.70;;;10.20;99.90;;;;;;5003871;28;20731;-72
2023/10/09 03:51:21;;;;;;;3.37;2.00;;;10.10;99.90;;;;;;5004514;28;20525;-73
2023/10/09 03:53:52;;;;;;;2.60;1.70;;;10.10;99.90;;;;;;4993403;28;20529;-71
2023/10/09 03:56:21;;;;;;;2.80;1.67;;;10.10;99.90;;;;;;5009141;28;20187;-72
2023/10/09 03:58:49;;;;;;;3.47;1.97;;;10.00;99.90;;;;;;4995600;28;20271;-73
2023/10/09 04:01:28;;;;;;;4.27;2.13;;;10.10;99.90;;;;;;5004241;28;20563;-73
2023/10/09 04:04:01;;;;;;;5.27;2.17;;;10.10;99.90;;;;;;4998994;28;20195;-73
2023/10/09 04:06:34;;;;;;;9.27;2.77;;;10.10;99.90;;;;;;5003554;28;20215;-72
2023/10/09 04:09:27;;;;;;;3.90;2.30;;;10.10;99.90;;;;;;5011628;28;20181;-72
2023/10/09 04:12:12;;;;;;;4.17;2.30;;;10.10;99.90;;;;;;4998841;28;20237;-72
2023/10/09 04:14:57;;;;;;;6.73;2.90;;;10.10;99.90;;;;;;5002782;28;20667;-72
2023/10/09 04:19:48;;;;;;;5.20;2.50;;;10.00;99.90;;;;;;5000144;28;20204;-74
2023/10/09 04:22:27;;;;;;;5.97;2.30;;;10.00;99.90;;;;;;4992221;28;20204;-74
2023/10/09 04:24:53;;;;;;;7.30;3.10;;;10.00;99.90;;;;;;4998110;28;20183;-71
2023/10/09 04:27:26;;;;;;;5.53;3.03;;;10.00;99.90;;;;;;5004202;28;20205;-71
2023/10/09 04:29:54;;;;;;;6.63;3.03;;;10.00;99.90;;;;;;4997110;28;20183;-73
2023/10/09 04:32:20;;;;;;;6.43;3.07;;;10.10;99.90;;;;;;5011515;28;20176;-73
2023/10/09 04:34:49;;;;;;;5.17;2.90;;;10.10;99.90;;;;;;4992155;28;20173;-73
2023/10/09 04:39:47;;;;;;;5.83;3.70;;;10.20;99.90;;;;;;5007543;28;20184;-71
2023/10/09 04:42:19;;;;;;;5.33;2.90;;;10.30;99.90;;;;;;5007064;28;20216;-73
2023/10/09 04:47:57;;;;;;;10.27;2.80;;;10.30;99.90;;;;;;4999839;28;20243;-72
2023/10/09 04:52:55;;;;;;;5.97;3.43;;;10.40;99.90;;;;;;4989138;28;20550;-72
2023/10/09 04:55:24;;;;;;;7.50;3.43;;;10.50;99.90;;;;;;4995004;28;20181;-71
2023/10/09 04:58:13;;;;;;;10.37;3.60;;;10.50;99.90;;;;;;5011167;28;20281;-71
2023/10/09 05:03:11;;;;;;;10.60;3.97;;;10.70;99.90;;;;;;5011904;28;20272;-73
2023/10/09 05:11:15;;;;;;;9.67;4.40;;;10.80;99.90;;;;;;4992950;28;20197;-71
2023/10/09 05:16:33;;;;;;;15.43;4.70;;;10.90;99.90;;;;;;5005896;28;20782;-70
2023/10/09 05:18:59;;;;;;;12.87;4.60;;;11.00;99.90;;;;;;4997971;28;20181;-72
2023/10/09 05:21:36;;;;;;;14.80;4.87;;;11.00;99.90;;;;;;5008551;28;20679;-72
2023/10/09 05:35:07;;;;;;;22.13;6.87;;;11.50;99.90;;;;;;5004186;28;20195;-72
2023/10/09 05:37:34;;;;;;;12.07;5.90;;;11.50;99.90;;;;;;4999464;28;20209;-74
2023/10/09 05:42:45;;;;;;;18.07;7.07;;;11.70;99.90;;;;;;4994377;28;20302;-72
2023/10/09 05:47:53;;;;;;;17.17;5.80;;;11.80;99.90;;;;;;5022575;28;20204;-72
2023/10/09 05:50:34;;;;;;;23.77;7.87;;;11.80;99.90;;;;;;5001485;28;20175;-73
2023/10/09 05:57:00;;;;;;;21.20;7.30;;;11.90;99.90;;;;;;5008981;28;20195;-73
2023/10/09 06:04:15;;;;;;;17.90;5.90;;;12.20;99.90;;;;;;4995576;28;20224;-72
2023/10/09 06:06:45;;;;;;;15.87;6.37;;;12.20;99.90;;;;;;5005422;28;20199;-74
2023/10/09 06:11:55;;;;;;;13.30;6.10;;;12.40;99.90;;;;;;5004598;28;20193;-74
2023/10/09 06:14:45;;;;;;;11.97;5.77;;;12.40;99.90;;;;;;5012500;28;20552;-75
2023/10/09 06:19:43;;;;;;;16.40;5.83;;;12.50;99.90;;;;;;5005281;28;20266;-72
2023/10/09 06:24:54;;;;;;;18.40;6.23;;;12.60;99.90;;;;;;5013867;28;20185;-75
2023/10/09 06:30:24;;;;;;;16.10;6.13;;;12.80;99.90;;;;;;4996004;28;20208;-75
2023/10/09 06:32:51;;;;;;;14.13;6.10;;;12.90;99.90;;;;;;4997410;28;20176;-75
2023/10/09 06:35:30;;;;;;;14.90;6.60;;;13.00;99.90;;;;;;5004124;28;20176;-74
2023/10/09 06:43:36;;;;;;;13.73;6.20;;;13.30;99.90;;;;;;5016125;28;20262;-74
2023/10/09 06:46:52;;;;;;;12.47;5.77;;;13.40;99.90;;;;;;5009531;28;20177;-73
2023/10/09 06:48:57;;;;;;;15.23;6.67;;;13.60;99.90;;;;;;4995710;28;20703;-72
2023/10/09 06:59:21;;;;;;;17.00;7.17;;;14.00;99.90;;;;;;5002572;28;20220;-71
2023/10/09 07:02:25;;;;;;;17.47;6.40;;;14.10;99.90;;;;;;4998591;28;20196;-71
2023/10/09 07:07:07;;;;;;;13.50;6.00;;;14.40;99.90;;;;;;4990662;28;20243;-71
2023/10/09 07:09:43;;;;;;;16.07;5.33;;;14.60;99.90;;;;;;5011673;28;20204;-72
2023/10/09 07:12:13;;;;;;;14.67;6.10;;;14.70;99.90;;;;;;5004939;28;20256;-71
2023/10/09 07:17:26;;;;;;;12.20;5.70;;;14.70;99.90;;;;;;4992936;28;20579;-72
2023/10/09 07:24:58;;;;;;;14.70;6.07;;;14.70;99.90;;;;;;4993666;28;20192;-72
2023/10/09 07:27:43;;;;;;;11.37;5.93;;;14.70;99.90;;;;;;4993083;28;20224;-73
2023/10/09 07:38:19;;;;;;;12.77;6.13;;;14.90;99.90;;;;;;5001985;28;20643;-73
2023/10/09 07:46:33;;;;;;;12.00;5.47;;;15.30;99.90;;;;;;4998249;28;20242;-73
2023/10/09 07:49:08;;;;;;;15.73;5.60;;;15.40;99.90;;;;;;5004989;28;20180;-70
2023/10/09 07:51:43;;;;;;;11.83;5.13;;;15.50;99.90;;;;;;5003582;28;20252;-73
2023/10/09 07:54:09;;;;;;;11.50;4.80;;;15.60;99.90;;;;;;5004075;28;20651;-72
2023/10/09 07:56:45;;;;;;;9.23;5.00;;;15.80;99.90;;;;;;5003443;28;20176;-71
2023/10/09 07:59:18;;;;;;;8.93;4.60;;;15.90;99.90;;;;;;5004716;28;20216;-72
2023/10/09 08:01:58;;;;;;;14.93;4.97;;;16.00;99.90;;;;;;5011158;28;20632;-71
2023/10/09 08:04:37;;;;;;;9.87;4.60;;;16.20;99.90;;;;;;4994039;28;20193;-72
2023/10/09 08:07:19;;;;;;;13.80;4.90;;;16.30;99.90;;;;;;5003496;28;20607;-72
2023/10/09 08:11:35;;;;;;;12.20;5.10;;;16.40;99.90;;;;;;4983212;28;20653;-72
2023/10/09 08:12:57;;;;;;;12.17;6.10;;;16.50;99.90;;;;;;5009421;28;20722;-72
2023/10/09 08:15:51;;;;;;;11.77;5.03;;;16.40;99.90;;;;;;5011300;28;20226;-72
2023/10/09 08:18:27;;;;;;;12.60;5.07;;;16.40;99.90;;;;;;5002941;28;20200;-72
2023/10/09 08:23:29;;;;;;;14.13;5.30;;;16.40;99.90;;;;;;5007850;28;20215;-72
2023/10/09 08:26:13;;;;;;;11.37;4.90;;;16.40;99.90;;;;;;5014252;28;20181;-72
2023/10/09 08:28:42;;;;;;;10.23;4.47;;;16.40;99.90;;;;;;5021721;28;20664;-72
2023/10/09 08:32:17;;;;;;;9.93;4.37;;;16.40;99.90;;;;;;4990829;28;20236;-72
2023/10/09 08:33:58;;;;;;;10.83;4.63;;;16.50;99.90;;;;;;4988843;28;20221;-72
2023/10/09 08:36:28;;;;;;;11.43;4.57;;;16.60;99.90;;;;;;4989169;28;20236;-72
2023/10/09 08:38:58;;;;;;;11.33;4.27;;;16.80;99.90;;;;;;5005746;28;20205;-72
2023/10/09 08:41:29;;;;;;;8.00;4.07;;;16.90;99.90;;;;;;4991071;28;20182;-72
2023/10/09 08:43:56;;;;;;;8.90;4.33;;;17.00;99.90;;;;;;5004071;28;20267;-72
2023/10/09 08:46:26;;;;;;;8.83;4.80;;;17.10;99.90;;;;;;5010709;28;20188;-72
2023/10/09 08:48:58;;;;;;;9.03;4.10;;;17.20;99.90;;;;;;4994594;28;20201;-71
2023/10/09 08:51:26;;;;;;;9.17;4.83;;;17.30;99.90;;;;;;5010454;28;20176;-72
2023/10/09 08:53:52;;;;;;;11.67;4.53;;;17.40;99.90;;;;;;5010669;28;20264;-71
2023/10/09 08:56:22;;;;;;;8.83;4.17;;;17.50;99.90;;;;;;5010725;28;20177;-71
2023/10/09 08:58:57;;;;;;;10.77;4.27;;;17.60;99.90;;;;;;4993825;28;20672;-70
2023/10/09 09:01:24;;;;;;;12.43;4.43;;;17.80;99.90;;;;;;5002308;28;20651;-70
2023/10/09 09:03:51;;;;;;;9.83;4.40;;;17.90;99.90;;;;;;4998559;28;20212;-70
2023/10/09 09:06:19;;;;;;;11.93;4.57;;;17.90;99.90;;;;;;5006118;28;20628;-70
2023/10/09 09:08:46;;;;;;;11.97;4.40;;;18.00;99.90;;;;;;4993482;28;20234;-70
2023/10/09 09:11:30;;;;;;;23.77;5.43;;;18.00;99.90;;;;;;5010365;28;20184;-71
2023/10/09 09:14:04;;;;;;;17.33;4.77;;;18.10;99.90;;;;;;5010419;28;20231;-71
2023/10/09 09:16:31;;;;;;;19.33;4.90;;;18.10;99.90;;;;;;5010158;28;20186;-70
2023/10/09 09:19:17;;;;;;;16.30;4.10;;;18.10;99.90;;;;;;5009554;28;20223;-70
2023/10/09 09:22:11;;;;;;;15.57;4.37;;;18.20;99.90;;;;;;5001821;28;20176;-70
2023/10/09 09:24:37;;;;;;;10.23;4.30;;;18.30;99.90;;;;;;5007754;28;20195;-70
2023/10/09 09:27:15;;;;;;;17.57;5.30;;;18.40;99.90;;;;;;4992102;28;20615;-70
2023/10/09 09:29:41;;;;;;;17.20;4.40;;;18.40;99.90;;;;;;4984978;28;20193;-70
2023/10/09 09:32:20;;;;;;;17.70;4.37;;;18.40;99.90;;;;;;4984700;28;20205;-69
2023/10/09 09:34:48;;;;;;;15.00;3.80;;;18.30;99.90;;;;;;4984931;28;20195;-70
2023/10/09 09:37:19;;;;;;;10.30;4.20;;;18.40;99.90;;;;;;4985235;28;20555;-70
2023/10/09 09:39:49;;;;;;;13.13;4.37;;;18.30;99.90;;;;;;4984785;28;20179;-70
2023/10/09 09:42:17;;;;;;;14.07;4.30;;;18.20;99.90;;;;;;4984330;28;20672;-71
2023/10/09 09:44:44;;;;;;;12.80;4.80;;;18.30;99.90;;;;;;4986417;28;20181;-70
2023/10/09 09:47:16;;;;;;;13.70;4.53;;;18.30;99.90;;;;;;4985496;28;20589;-70
2023/10/09 09:49:42;;;;;;;10.40;4.40;;;18.30;99.90;;;;;;4984281;28;20193;-70
2023/10/09 09:52:12;;;;;;;9.83;4.57;;;18.40;99.90;;;;;;4984194;28;20195;-69
2023/10/09 09:54:40;;;;;;;12.93;5.27;;;18.50;99.90;;;;;;4985219;28;20188;-69
2023/10/09 09:57:12;;;;;;;11.83;4.23;;;18.60;99.90;;;;;;4994013;28;20331;-69
2023/10/09 09:59:40;;;;;;;13.27;4.83;;;18.60;99.90;;;;;;5008005;28;20176;-69
2023/10/09 10:02:10;;;;;;;11.57;4.50;;;18.80;99.90;;;;;;4985080;28;20213;-69
2023/10/09 10:04:40;;;;;;;31.23;8.20;;;19.00;99.90;;;;;;4993634;28;20169;-69
2023/10/09 10:07:09;;;;;;;12.73;5.17;;;19.00;99.90;;;;;;4978006;28;20221;-68
2023/10/09 10:09:39;;;;;;;33.63;6.10;;;19.00;99.90;;;;;;4983635;28;20185;-69
2023/10/09 10:12:11;;;;;;;17.70;5.47;;;18.90;99.90;;;;;;4985583;28;20196;-69
2023/10/09 10:14:57;;;;;;;13.30;4.87;;;18.90;99.90;;;;;;4986026;28;20279;-69
2023/10/09 10:17:22;;;;;;;13.43;4.83;;;19.10;99.90;;;;;;4983403;28;20560;-70
2023/10/09 10:20:00;;;;;;;16.90;4.90;;;19.20;99.90;;;;;;4983096;28;20184;-70
2023/10/09 10:22:27;;;;;;;14.63;5.90;;;19.40;99.90;;;;;;4979264;28;20650;-69
2023/10/09 10:24:54;;;;;;;16.17;5.43;;;19.50;99.90;;;;;;5001876;28;20185;-69
2023/10/09 10:27:27;;;;;;;10.37;4.63;;;19.60;99.90;;;;;;5003031;28;20223;-69
2023/10/09 10:30:11;;;;;;;9.90;4.23;;;19.80;99.90;;;;;;4991767;28;20637;-69
2023/10/09 10:32:57;;;;;;;13.33;5.00;;;20.00;99.90;;;;;;4988186;28;20186;-69
2023/10/09 10:35:32;;;;;;;10.87;4.67;;;20.10;99.90;;;;;;4993905;28;20181;-69
2023/10/09 10:38:14;;;;;;;12.40;4.80;;;20.20;99.90;;;;;;4989631;28;21661;-70
2023/10/09 10:40:46;;;;;;;12.77;4.83;;;20.40;99.90;;;;;;5002101;28;20188;-69
2023/10/09 10:44:33;;;;;;;13.73;4.97;;;20.30;99.90;;;;;;4994390;28;20244;-69
2023/10/09 10:46:14;;;;;;;11.33;5.30;;;20.50;99.90;;;;;;4980630;28;20289;-69
2023/10/09 10:48:46;;;;;;;12.07;5.30;;;20.50;99.90;;;;;;4987614;28;20221;-69
2023/10/09 10:51:14;;;;;;;14.10;4.90;;;20.50;99.90;;;;;;4986682;28;20181;-69
2023/10/09 10:53:52;;;;;;;15.27;5.00;;;20.70;99.90;;;;;;4990100;28;20722;-69
2023/10/09 10:56:18;;;;;;;8.50;4.03;;;21.10;99.90;;;;;;5004954;28;20185;-69
2023/10/09 11:04:24;;;;;;;10.17;5.07;;;21.70;99.90;;;;;;4996403;28;20188;-70
2023/10/09 11:06:51;;;;;;;14.43;4.03;;;22.00;99.90;;;;;;5002865;28;20193;-70
2023/10/09 11:09:23;;;;;;;18.20;4.50;;;22.20;99.90;;;;;;5006089;28;20188;-70
2023/10/09 11:11:50;;;;;;;8.47;3.90;;;22.40;99.90;;;;;;4996378;28;20551;-70
2023/10/09 11:14:17;;;;;;;11.60;4.03;;;22.60;99.90;;;;;;4983831;28;20599;-70
2023/10/09 11:16:47;;;;;;;15.90;4.13;;;22.80;99.90;;;;;;4998479;28;20189;-70
2023/10/09 11:19:28;;;;;;;20.40;4.80;;;22.90;99.90;;;;;;4994878;28;20511;-71
2023/10/09 11:22:14;;;;;;;16.40;4.13;;;22.80;99.90;;;;;;4991669;28;20307;-71
2023/10/09 11:24:43;;;;;;;9.13;4.10;;;22.70;99.90;;;;;;5005356;28;20631;-70
2023/10/09 11:27:18;;;;;;;13.20;4.60;;;22.50;99.90;;;;;;5008046;28;20241;-70
2023/10/09 11:32:19;;;;;;;7.47;3.97;;;22.20;99.90;;;;;;5000835;28;20185;-71
2023/10/09 11:34:51;;;;;;;9.60;4.50;;;22.30;99.90;;;;;;4998508;28;20272;-71
2023/10/09 11:37:38;;;;;;;9.03;3.97;;;22.20;99.90;;;;;;5002674;28;20239;-70
2023/10/09 11:40:21;;;;;;;9.03;3.90;;;22.30;99.90;;;;;;4997303;28;20296;-71
2023/10/09 11:42:49;;;;;;;7.13;3.80;;;22.20;99.90;;;;;;4996986;28;20583;-71
2023/10/09 11:45:29;;;;;;;8.93;4.07;;;22.20;99.90;;;;;;5004130;28;20219;-70
2023/10/09 11:47:57;;;;;;;9.37;4.00;;;22.10;99.90;;;;;;5003895;28;20192;-70
2023/10/09 11:53:39;;;;;;;10.77;3.87;;;21.90;99.90;;;;;;5004868;28;20584;-71
2023/10/09 11:56:04;;;;;;;10.33;4.00;;;22.00;99.90;;;;;;5001874;28;20567;-70
2023/10/09 11:58:30;;;;;;;10.50;4.20;;;21.90;99.90;;;;;;5006489;28;20205;-72
2023/10/09 12:01:03;;;;;;;8.97;4.13;;;21.90;99.90;;;;;;5001658;28;20189;-71
2023/10/09 12:03:30;;;;;;;11.90;3.83;;;21.90;99.90;;;;;;4997896;28;20204;-70
2023/10/09 12:06:14;;;;;;;10.80;4.53;;;21.80;99.90;;;;;;5002093;28;20193;-71
2023/10/09 12:08:42;;;;;;;14.63;3.80;;;21.90;99.90;;;;;;4995545;28;20308;-71
2023/10/09 12:11:09;;;;;;;10.90;4.17;;;21.90;99.90;;;;;;4997297;28;20656;-71
2023/10/09 12:13:37;;;;;;;8.73;4.17;;;22.00;99.90;;;;;;5019119;28;20176;-70
2023/10/09 12:16:07;;;;;;;7.87;3.73;;;22.00;99.90;;;;;;4996791;28;20270;-71
2023/10/09 12:18:34;;;;;;;6.70;3.50;;;22.00;99.90;;;;;;4993901;28;20229;-70
2023/10/09 12:21:04;;;;;;;9.20;3.70;;;22.00;99.90;;;;;;4990594;28;20208;-70
2023/10/09 12:23:35;;;;;;;10.40;3.87;;;22.20;99.90;;;;;;5004087;28;20264;-70
2023/10/09 12:26:01;;;;;;;7.77;3.80;;;22.10;99.90;;;;;;5005661;28;20651;-71
2023/10/09 12:28:28;;;;;;;9.60;3.20;;;22.10;99.90;;;;;;5001627;28;20204;-71
2023/10/09 12:30:53;;;;;;;8.83;4.03;;;22.10;99.90;;;;;;5006277;28;20711;-72
2023/10/09 12:33:27;;;;;;;8.13;3.70;;;22.30;99.90;;;;;;5001751;28;20276;-71
2023/10/09 12:35:58;;;;;;;11.30;4.07;;;22.40;99.90;;;;;;4990937;28;20181;-71
2023/10/09 12:38:31;;;;;;;7.13;3.63;;;22.50;99.90;;;;;;4997012;28;20719;-71
2023/10/09 12:41:20;;;;;;;14.90;3.80;;;22.60;99.90;;;;;;4990742;28;20197;-71
2023/10/09 12:43:47;;;;;;;8.67;3.90;;;22.70;99.90;;;;;;4999100;28;20299;-71
2023/10/09 12:46:16;;;;;;;8.93;3.70;;;22.80;99.90;;;;;;5005289;28;20181;-70
2023/10/09 12:48:46;;;;;;;10.03;3.27;;;22.80;99.90;;;;;;5006164;28;20203;-71
2023/10/09 12:51:16;;;;;;;7.53;3.13;;;22.70;99.90;;;;;;4998055;28;20175;-71
2023/10/09 12:53:45;;;;;;;9.73;3.60;;;22.80;99.90;;;;;;5003155;28;20194;-71
2023/10/09 12:56:12;;;;;;;9.27;3.53;;;22.70;99.90;;;;;;4998448;28;20255;-71
2023/10/09 12:58:38;;;;;;;11.50;3.90;;;22.90;99.90;;;;;;5004717;28;20202;-71
2023/10/09 13:01:11;;;;;;;8.70;3.30;;;22.80;99.90;;;;;;4997639;28;20277;-71
2023/10/09 13:03:40;;;;;;;7.70;3.67;;;22.70;99.90;;;;;;4985834;28;20232;-70
2023/10/09 13:06:11;;;;;;;5.70;3.40;;;22.60;99.90;;;;;;5000223;28;20213;-71
2023/10/09 13:08:40;;;;;;;8.77;3.70;;;22.60;99.90;;;;;;5007167;28;20312;-71
2023/10/09 13:11:10;;;;;;;8.33;3.60;;;22.80;99.90;;;;;;5002494;28;20677;-71
2023/10/09 13:13:41;;;;;;;8.03;3.40;;;22.70;99.90;;;;;;4997475;28;20210;-72
2023/10/09 13:16:11;;;;;;;18.17;8.40;;;22.70;99.90;;;;;;4991238;28;20186;-70
2023/10/09 13:18:48;;;;;;;12.03;4.13;;;22.60;99.90;;;;;;5006135;28;20669;-71
2023/10/09 13:21:15;;;;;;;9.63;3.87;;;22.60;99.90;;;;;;4990878;28;20229;-70
2023/10/09 13:23:46;;;;;;;9.80;3.10;;;22.60;99.90;;;;;;5003681;28;20210;-70
2023/10/09 13:26:18;;;;;;;12.30;4.00;;;22.50;99.90;;;;;;5004306;28;20181;-69
2023/10/09 13:28:45;;;;;;;12.77;4.00;;;22.60;99.90;;;;;;5003374;28;20236;-71
2023/10/09 13:31:14;;;;;;;7.77;3.60;;;22.50;99.90;;;;;;4978804;28;20278;-71
2023/10/09 13:33:40;;;;;;;12.60;4.17;;;22.50;99.90;;;;;;4974130;28;20699;-70
2023/10/09 13:36:16;;;;;;;9.23;3.60;;;22.40;99.90;;;;;;4984116;28;20193;-70
2023/10/09 13:38:45;;;;;;;14.20;5.10;;;22.20;99.90;;;;;;4987823;28;20256;-68
2023/10/09 13:41:15;;;;;;;20.90;8.43;;;22.20;99.90;;;;;;4990118;28;20235;-69
2023/10/09 13:43:42;;;;;;;10.33;4.20;;;22.10;99.90;;;;;;4989082;28;20267;-70
2023/10/09 13:46:09;;;;;;;9.87;3.87;;;22.10;99.90;;;;;;4990133;28;20664;-70
2023/10/09 13:48:38;;;;;;;11.23;4.10;;;22.00;99.90;;;;;;5004660;28;20347;-69
2023/10/09 13:51:19;;;;;;;8.53;4.27;;;22.00;99.90;;;;;;4989581;28;20196;-69
2023/10/09 13:53:48;;;;;;;15.03;3.97;;;21.90;99.90;;;;;;4989695;28;20184;-68
2023/10/09 13:56:18;;;;;;;14.40;4.70;;;21.90;99.90;;;;;;4990050;28;20617;-68
2023/10/09 13:58:51;;;;;;;30.20;12.23;;;21.70;99.90;;;;;;4982122;28;20209;-70
2023/10/09 14:01:26;;;;;;;10.83;4.30;;;21.70;99.90;;;;;;4989568;28;20184;-67
2023/10/09 14:03:59;;;;;;;9.53;3.73;;;21.70;99.90;;;;;;4978506;28;20221;-68
2023/10/09 14:06:31;;;;;;;9.43;4.33;;;21.70;99.90;;;;;;4987056;28;20177;-68
2023/10/09 14:09:05;;;;;;;9.97;3.70;;;21.70;99.90;;;;;;4988821;28;20232;-68
2023/10/09 14:11:44;;;;;;;10.33;4.07;;;21.60;99.90;;;;;;4982357;28;20265;-68
2023/10/09 14:14:09;;;;;;;10.90;4.47;;;21.40;99.90;;;;;;4984469;28;20181;-68
2023/10/09 14:16:42;;;;;;;7.47;3.77;;;21.30;99.90;;;;;;4993487;28;20220;-68
2023/10/09 14:19:13;;;;;;;13.67;4.33;;;21.40;99.90;;;;;;4993046;28;20652;-68
2023/10/09 14:21:40;;;;;;;11.10;4.57;;;21.30;99.90;;;;;;4991634;28;20181;-68
2023/10/09 14:24:15;;;;;;;8.20;3.93;;;21.20;99.90;;;;;;4989242;28;20191;-68
2023/10/09 14:26:44;;;;;;;10.37;4.00;;;21.40;99.90;;;;;;4990970;28;20184;-68
2023/10/09 14:29:16;;;;;;;11.27;4.17;;;21.40;99.90;;;;;;4981418;28;20177;-68
2023/10/09 14:31:49;;;;;;;10.53;4.00;;;21.50;99.90;;;;;;4983245;28;20181;-68
2023/10/09 14:34:14;;;;;;;8.37;4.30;;;21.40;99.90;;;;;;4983008;28;20691;-68
2023/10/09 14:36:43;;;;;;;10.33;4.07;;;21.40;99.90;;;;;;4993170;28;20209;-68
2023/10/09 14:39:13;;;;;;;12.50;4.57;;;21.30;99.90;;;;;;4992423;28;20739;-68
2023/10/09 14:41:40;;;;;;;12.23;4.17;;;21.30;99.90;;;;;;4976008;28;20177;-67
2023/10/09 14:44:06;;;;;;;12.30;3.97;;;21.40;99.90;;;;;;4990393;28;20209;-68
2023/10/09 14:46:31;;;;;;;10.37;4.63;;;21.40;99.90;;;;;;4992274;28;20224;-69
2023/10/09 14:48:57;;;;;;;7.47;3.80;;;21.40;99.90;;;;;;4988831;28;20644;-67
2023/10/09 14:51:29;;;;;;;11.07;4.23;;;21.40;99.90;;;;;;4993122;28;20181;-69
2023/10/09 14:53:59;;;;;;;7.70;3.73;;;21.30;99.90;;;;;;4989412;28;20227;-68
2023/10/09 14:56:36;;;;;;;10.07;4.10;;;21.40;99.90;;;;;;4993389;28;20189;-69
2023/10/09 14:59:02;;;;;;;9.63;4.40;;;21.50;99.90;;;;;;4989895;28;20593;-68
2023/10/09 15:01:31;;;;;;;13.17;4.27;;;21.50;99.90;;;;;;4987126;28;20648;-68
2023/10/09 15:03:59;;;;;;;16.43;4.07;;;21.50;99.90;;;;;;4992789;28;20288;-66
2023/10/09 15:06:27;;;;;;;9.30;4.27;;;21.40;99.90;;;;;;4982734;28;20542;-68
2023/10/09 15:08:52;;;;;;;8.87;4.13;;;21.30;99.90;;;;;;4980519;28;20577;-67
2023/10/09 15:11:25;;;;;;;9.10;3.87;;;21.30;99.90;;;;;;4991154;28;20292;-67
2023/10/09 15:13:52;;;;;;;10.13;4.27;;;21.20;99.90;;;;;;4991555;28;20623;-68
2023/10/09 15:16:18;;;;;;;12.23;4.43;;;21.10;99.90;;;;;;4992548;28;20185;-68
2023/10/09 15:18:43;;;;;;;10.03;4.00;;;21.00;99.90;;;;;;4991589;28;20295;-66
2023/10/09 15:21:09;;;;;;;9.70;3.93;;;20.70;99.90;;;;;;4992549;28;20233;-71